Time;durP1;ratioP1;P1;durP2;ratioP2;P2;SDS_P1;SDS_P2;PMS_P1;PMS_P2;Temp;Humidity;BMP_temperature;BMP_pressure;BME280_temperature;BME280_humidity;BME280_pressure;Samples;Min_cycle;Max_cycle;Signal;HPM_P1;HPM_P2
2023/09/11 00:00:10;;;;;;;11.73;9.30;;;;;;;15.25;83.13;100974.09;5013058;28;21572;-71
2023/09/11 00:02:37;;;;;;;11.53;9.87;;;;;;;15.23;83.05;100978.22;5009358;28;20257;-72
2023/09/11 00:05:05;;;;;;;11.77;9.07;;;;;;;15.19;82.76;100980.81;5006671;28;20217;-71
2023/09/11 00:07:32;;;;;;;12.53;9.87;;;;;;;15.16;83.39;100973.53;5000214;28;20956;-71
2023/09/11 00:09:58;;;;;;;11.27;9.33;;;;;;;15.14;83.50;100975.75;5012215;28;20244;-72
2023/09/11 00:12:24;;;;;;;11.67;9.37;;;;;;;15.12;83.88;100977.22;5010135;28;20905;-72
2023/09/11 00:14:51;;;;;;;12.30;9.17;;;;;;;15.08;83.66;100966.50;5012472;28;20216;-72
2023/09/11 00:17:17;;;;;;;13.37;9.73;;;;;;;15.08;83.94;100965.72;5012710;28;20238;-72
2023/09/11 00:19:43;;;;;;;10.37;9.13;;;;;;;15.07;84.38;100966.84;5013237;28;20605;-73
2023/09/11 00:22:11;;;;;;;12.37;9.73;;;;;;;15.04;84.22;100968.31;5014886;28;20242;-71
2023/09/11 00:24:37;;;;;;;11.93;9.17;;;;;;;15.03;84.26;100966.00;5012846;28;20749;-72
2023/09/11 00:27:04;;;;;;;12.80;9.87;;;;;;;15.00;84.97;100967.44;5013962;28;20856;-71
2023/09/11 00:29:30;;;;;;;11.00;9.37;;;;;;;14.97;84.35;100970.03;5010672;28;20226;-71
2023/09/11 00:31:57;;;;;;;11.20;9.60;;;;;;;14.94;84.75;100955.53;4992132;28;20217;-71
2023/09/11 00:34:23;;;;;;;13.03;10.00;;;;;;;14.90;84.36;100952.03;4984950;28;20207;-72
2023/09/11 00:36:49;;;;;;;13.93;10.33;;;;;;;14.88;84.48;100958.78;5003022;28;20318;-71
2023/09/11 00:39:17;;;;;;;15.33;9.63;;;;;;;14.85;84.84;100962.91;4995636;28;20210;-71
2023/09/11 00:41:43;;;;;;;10.40;9.30;;;;;;;14.83;84.86;100956.41;4993711;28;21314;-71
2023/09/11 00:44:10;;;;;;;14.73;9.97;;;;;;;14.82;84.44;100957.53;4991578;28;20556;-72
2023/09/11 00:46:36;;;;;;;11.43;9.63;;;;;;;14.78;84.82;100959.31;4991844;28;20233;-71
2023/09/11 00:49:03;;;;;;;11.17;9.33;;;;;;;14.75;84.57;100963.44;4985782;28;20226;-71
2023/09/11 00:51:29;;;;;;;11.10;9.50;;;;;;;14.72;84.44;100956.16;4993371;28;20210;-72
2023/09/11 00:53:55;;;;;;;12.03;9.90;;;;;;;14.72;85.54;100955.38;4995710;28;20210;-71
2023/09/11 00:56:23;;;;;;;10.67;9.10;;;;;;;14.71;85.48;100964.47;4997289;28;20671;-71
2023/09/11 00:58:51;;;;;;;10.27;8.97;;;;;;;14.68;85.54;100959.81;4997586;28;20198;-72
2023/09/11 01:01:19;;;;;;;11.47;9.00;;;;;;;14.65;85.41;100955.97;4994370;28;23446;-71
2023/09/11 01:03:46;;;;;;;10.30;8.93;;;;;;;14.64;85.31;100948.34;5013626;28;20216;-70
2023/09/11 01:06:13;;;;;;;10.90;9.13;;;;;;;14.62;85.33;100950.56;4992160;28;20226;-71
2023/09/11 01:08:39;;;;;;;11.37;9.77;;;;;;;14.61;85.91;100949.81;5006860;28;20738;-71
2023/09/11 01:11:06;;;;;;;13.87;9.03;;;;;;;14.57;85.58;100948.94;5009495;28;20849;-71
2023/09/11 01:13:34;;;;;;;11.97;9.43;;;;;;;14.56;85.95;100944.75;4992065;28;20424;-71
2023/09/11 01:16:04;;;;;;;12.33;9.27;;;;;;;14.55;85.97;100935.22;5013487;28;20714;-72
2023/09/11 01:18:38;;;;;;;11.50;9.33;;;;;;;14.52;85.79;100946.53;4990884;28;20225;-72
2023/09/11 01:21:32;;;;;;;11.57;9.00;;;;;;;14.50;86.30;100940.78;5003925;28;20198;-71
2023/09/11 01:24:12;;;;;;;10.80;8.67;;;;;;;14.47;86.25;100943.34;4994118;28;20214;-71
2023/09/11 01:27:03;;;;;;;14.00;8.97;;;;;;;14.44;86.37;100941.41;4993188;28;20435;-71
2023/09/11 01:29:34;;;;;;;11.70;8.27;;;;;;;14.42;86.58;100938.31;5010807;28;20221;-71
2023/09/11 01:32:04;;;;;;;14.30;8.83;;;;;;;14.40;86.26;100943.97;5009345;28;20212;-72
2023/09/11 01:34:31;;;;;;;10.60;8.60;;;;;;;14.39;86.69;100939.00;4995502;28;20240;-71
2023/09/11 01:36:57;;;;;;;15.60;8.93;;;;;;;14.36;86.75;100939.66;4991868;28;20245;-71
2023/09/11 01:39:24;;;;;;;10.70;8.23;;;;;;;14.34;86.32;100941.91;4989208;28;20210;-71
2023/09/11 01:41:54;;;;;;;10.17;8.33;;;;;;;14.31;86.20;100943.34;4989278;28;20298;-70
2023/09/11 01:44:26;;;;;;;10.53;8.50;;;;;;;14.27;85.97;100939.06;4981922;28;20213;-71
2023/09/11 01:46:56;;;;;;;9.63;8.20;;;;;;;14.26;86.38;100935.63;5011623;28;20622;-71
2023/09/11 01:49:25;;;;;;;11.23;8.70;;;;;;;14.23;86.97;100936.31;4996664;28;20238;-71
2023/09/11 01:51:52;;;;;;;11.13;8.23;;;;;;;14.22;86.84;100933.97;5010236;28;20217;-71
2023/09/11 01:54:20;;;;;;;10.83;8.80;;;;;;;14.19;86.92;100935.44;4982173;28;20325;-72
2023/09/11 01:56:47;;;;;;;10.30;8.67;;;;;;;14.19;87.14;100939.97;4980817;28;20234;-71
2023/09/11 01:59:14;;;;;;;10.77;8.90;;;;;;;14.15;87.15;100929.25;4992264;28;20213;-70
2023/09/11 02:01:40;;;;;;;12.87;8.33;;;;;;;14.12;87.21;100929.16;4979218;28;20360;-71
2023/09/11 02:04:09;;;;;;;9.53;8.53;;;;;;;14.10;87.15;100929.50;5014190;28;20217;-72
2023/09/11 02:06:35;;;;;;;8.73;7.77;;;;;;;14.09;87.05;100929.84;5011151;28;20849;-71
2023/09/11 02:09:01;;;;;;;11.13;8.10;;;;;;;14.09;88.00;100924.53;4985037;28;20226;-72
2023/09/11 02:11:28;;;;;;;9.20;8.00;;;;;;;14.05;87.17;100923.66;5004264;28;21015;-71
2023/09/11 02:13:54;;;;;;;10.53;8.43;;;;;;;14.04;87.31;100924.78;4988771;28;20221;-72
2023/09/11 02:16:21;;;;;;;9.90;8.20;;;;;;;13.99;87.29;100927.66;5008718;28;20726;-71
2023/09/11 02:18:47;;;;;;;9.80;8.60;;;;;;;13.98;87.01;100932.19;4997927;28;20222;-71
2023/09/11 02:21:15;;;;;;;11.50;8.57;;;;;;;13.96;87.25;100923.81;4994850;28;20821;-71
2023/09/11 02:23:42;;;;;;;10.27;9.03;;;;;;;13.93;87.49;100921.81;4983571;28;20853;-71
2023/09/11 02:26:08;;;;;;;10.37;8.13;;;;;;;13.94;87.82;100920.72;5012629;28;20775;-72
2023/09/11 02:28:35;;;;;;;12.50;8.70;;;;;;;13.91;87.96;100926.69;4995276;28;20235;-71
2023/09/11 02:31:01;;;;;;;11.33;8.23;;;;;;;13.88;87.80;100927.38;5010666;28;21395;-72
2023/09/11 02:33:28;;;;;;;11.27;8.70;;;;;;;13.90;88.40;100927.03;4987793;28;21361;-71
2023/09/11 02:35:55;;;;;;;10.73;8.90;;;;;;;13.87;87.84;100922.41;4986366;28;20318;-71
2023/09/11 02:38:23;;;;;;;13.80;9.37;;;;;;;13.86;88.28;100932.25;5015113;28;20198;-72
2023/09/11 02:40:49;;;;;;;10.07;8.13;;;;;;;13.84;88.23;100923.88;4993518;28;20205;-70
2023/09/11 02:43:15;;;;;;;12.13;8.87;;;;;;;13.82;88.10;100917.34;5011937;28;21397;-71
2023/09/11 02:45:42;;;;;;;11.90;9.43;;;;;;;13.82;88.20;100918.09;5008322;28;20229;-72
2023/09/11 02:48:08;;;;;;;12.20;9.20;;;;;;;13.80;88.17;100915.03;4994677;28;20219;-71
2023/09/11 02:50:35;;;;;;;9.70;8.67;;;;;;;13.75;87.40;100923.22;4995069;28;20599;-71
2023/09/11 02:53:02;;;;;;;10.43;9.10;;;;;;;13.75;87.51;100920.59;5001404;28;20225;-71
2023/09/11 02:55:29;;;;;;;12.07;10.03;;;;;;;13.74;87.87;100919.03;4998495;28;20308;-71
2023/09/11 02:57:56;;;;;;;10.20;8.90;;;;;;;13.73;88.04;100917.50;5017180;23;20858;-69
2023/09/11 03:00:22;;;;;;;11.03;9.07;;;;;;;13.72;88.30;100923.91;4995438;28;20635;-71
2023/09/11 03:02:48;;;;;;;13.27;9.43;;;;;;;13.71;88.51;100922.34;5000059;28;20359;-69
2023/09/11 03:05:15;;;;;;;10.70;8.37;;;;;;;13.69;88.16;100923.81;4998269;28;21287;-69
2023/09/11 03:07:41;;;;;;;11.77;8.70;;;;;;;13.68;88.41;100922.25;5005773;28;20804;-70
2023/09/11 03:10:08;;;;;;;9.90;8.43;;;;;;;13.64;87.91;100924.81;5002816;28;20930;-69
2023/09/11 03:12:35;;;;;;;11.27;8.90;;;;;;;13.62;88.06;100921.72;5002323;28;20851;-70
2023/09/11 03:15:03;;;;;;;10.43;9.20;;;;;;;13.62;87.92;100918.31;5027346;28;20260;-70
2023/09/11 03:17:31;;;;;;;11.07;9.47;;;;;;;13.61;88.48;100917.53;5019701;28;21257;-69
2023/09/11 03:19:58;;;;;;;11.07;8.90;;;;;;;13.59;88.25;100909.13;5027671;28;20708;-69
2023/09/11 03:22:25;;;;;;;10.13;8.87;;;;;;;13.57;88.37;100915.88;5005242;28;20212;-70
2023/09/11 03:24:51;;;;;;;13.40;8.97;;;;;;;13.53;87.90;100915.81;5001878;28;20223;-69
2023/09/11 03:27:17;;;;;;;12.03;9.33;;;;;;;13.51;87.71;100923.31;4994016;28;20274;-70
2023/09/11 03:29:46;;;;;;;10.57;8.93;;;;;;;13.52;88.17;100918.78;5008965;28;20721;-70
2023/09/11 03:32:12;;;;;;;10.23;8.83;;;;;;;13.51;88.39;100922.53;5014299;28;20194;-69
2023/09/11 03:34:38;;;;;;;11.00;9.33;;;;;;;13.49;88.32;100914.13;5002104;28;20211;-69
2023/09/11 03:37:05;;;;;;;10.97;9.40;;;;;;;13.47;88.23;100908.41;4997203;28;20237;-69
2023/09/11 03:39:32;;;;;;;11.47;9.03;;;;;;;13.47;88.58;100908.41;5025434;28;21019;-69
2023/09/11 03:41:58;;;;;;;10.53;8.97;;;;;;;13.47;88.55;100905.75;5000385;28;20213;-70
2023/09/11 03:44:25;;;;;;;10.83;9.20;;;;;;;13.45;88.58;100905.31;4999352;28;21924;-70
2023/09/11 03:46:53;;;;;;;9.80;8.57;;;;;;;13.45;88.58;100907.97;4997751;28;20616;-69
2023/09/11 03:49:19;;;;;;;10.27;9.17;;;;;;;13.43;88.57;100899.56;5023452;28;20972;-71
2023/09/11 03:51:47;;;;;;;10.30;9.07;;;;;;;13.38;88.65;100900.59;4997836;28;20216;-69
2023/09/11 03:54:13;;;;;;;10.47;8.27;;;;;;;13.42;89.00;100895.38;5026926;28;20281;-70
2023/09/11 03:56:40;;;;;;;12.83;9.03;;;;;;;13.38;88.90;100902.44;4995607;28;20232;-69
2023/09/11 03:59:08;;;;;;;10.20;8.53;;;;;;;13.37;88.80;100899.03;4999509;28;20826;-69
2023/09/11 04:01:34;;;;;;;11.40;8.47;;;;;;;13.35;88.73;100903.91;4994014;28;20208;-69
2023/09/11 04:04:02;;;;;;;13.67;8.83;;;;;;;13.34;88.55;100904.22;4993526;28;20202;-69
2023/09/11 04:06:28;;;;;;;17.07;8.77;;;;;;;13.30;88.59;100904.13;5020651;28;20239;-69
2023/09/11 04:08:54;;;;;;;10.17;8.87;;;;;;;13.29;88.96;100899.94;5019874;28;20225;-69
2023/09/11 04:11:22;;;;;;;9.30;8.17;;;;;;;13.27;88.70;100910.13;4996777;28;20220;-69
2023/09/11 04:13:49;;;;;;;10.17;8.60;;;;;;;13.23;88.75;100906.59;4998206;28;20207;-69
2023/09/11 04:16:15;;;;;;;9.97;8.57;;;;;;;13.22;88.65;100901.59;5020196;28;21612;-69
2023/09/11 04:18:43;;;;;;;12.03;8.10;;;;;;;13.22;89.04;100899.75;4999696;28;20764;-69
2023/09/11 04:21:10;;;;;;;8.97;7.90;;;;;;;13.18;88.63;100898.84;5001781;28;20859;-70
2023/09/11 04:23:37;;;;;;;10.37;7.97;;;;;;;13.18;88.69;100898.84;4999765;28;20212;-71
2023/09/11 04:26:06;;;;;;;8.53;7.60;;;;;;;13.18;89.35;100901.50;5000710;28;20212;-69
2023/09/11 04:28:33;;;;;;;10.30;7.03;;;;;;;13.19;89.45;100894.34;5026780;28;20954;-69
2023/09/11 04:30:59;;;;;;;9.90;7.63;;;;;;;13.17;89.55;100891.22;4995215;28;20228;-69
2023/09/11 04:33:27;;;;;;;8.40;7.30;;;;;;;13.15;89.50;100894.22;4993332;28;20204;-69
2023/09/11 04:35:53;;;;;;;10.93;7.87;;;;;;;13.13;89.12;100893.00;4993907;28;20199;-70
2023/09/11 04:38:21;;;;;;;10.67;8.50;;;;;;;13.13;88.93;100895.66;4991995;28;20816;-69
2023/09/11 04:40:48;;;;;;;12.97;8.70;;;;;;;13.11;89.14;100892.56;4998575;28;20220;-69
2023/09/11 04:43:14;;;;;;;11.77;9.07;;;;;;;13.11;89.21;100887.28;4989587;28;20203;-70
2023/09/11 04:45:41;;;;;;;12.87;8.93;;;;;;;13.10;89.34;100899.75;4998645;28;20281;-69
2023/09/11 04:48:07;;;;;;;10.73;8.80;;;;;;;13.10;89.35;100899.75;5024555;28;20576;-69
2023/09/11 04:50:34;;;;;;;14.20;8.17;;;;;;;13.09;89.20;100900.09;4999764;28;20227;-69
2023/09/11 04:53:00;;;;;;;10.83;8.23;;;;;;;13.06;88.93;100896.22;5003550;28;21681;-71
2023/09/11 04:55:28;;;;;;;14.17;8.20;;;;;;;13.05;89.04;100902.63;5014959;28;20225;-70
2023/09/11 04:57:54;;;;;;;11.67;8.97;;;;;;;13.07;89.53;100904.94;4995977;28;20243;-69
2023/09/11 05:00:21;;;;;;;12.37;8.30;;;;;;;13.07;89.30;100904.94;4993230;28;20220;-69
2023/09/11 05:02:48;;;;;;;18.47;9.70;;;;;;;13.08;89.39;100895.88;4988368;28;20307;-69
2023/09/11 05:05:15;;;;;;;11.90;9.10;;;;;;;13.09;89.67;100895.56;4998621;28;20208;-70
2023/09/11 05:07:42;;;;;;;13.93;8.93;;;;;;;13.14;90.06;100897.97;5018534;28;20221;-70
2023/09/11 05:10:09;;;;;;;12.50;9.37;;;;;;;13.15;90.46;100898.75;4999581;28;20261;-70
2023/09/11 05:12:37;;;;;;;11.07;8.97;;;;;;;13.17;90.14;100893.88;4996300;28;21628;-69
2023/09/11 05:15:04;;;;;;;14.77;9.53;;;;;;;13.21;90.40;100897.41;4999947;28;20214;-69
2023/09/11 05:17:30;;;;;;;12.10;9.60;;;;;;;13.24;90.49;100894.88;5024432;28;21131;-71
2023/09/11 05:19:57;;;;;;;14.23;10.50;;;;;;;13.28;90.37;100902.91;5004616;28;20211;-69
2023/09/11 05:22:23;;;;;;;15.83;10.97;;;;;;;13.31;90.12;100902.25;5015599;28;20208;-69
2023/09/11 05:24:49;;;;;;;14.73;11.57;;;;;;;13.33;89.73;100892.06;5029984;28;20211;-70
2023/09/11 05:27:16;;;;;;;18.73;10.50;;;;;;;13.36;89.86;100907.34;5025506;28;20572;-69
2023/09/11 05:29:44;;;;;;;12.10;10.53;;;;;;;13.42;90.02;100898.03;5029918;28;20216;-69
2023/09/11 05:32:10;;;;;;;14.07;10.73;;;;;;;13.48;90.20;100897.47;5026936;28;20846;-69
2023/09/11 05:34:36;;;;;;;16.30;12.47;;;;;;;13.52;89.89;100901.00;5028773;28;20210;-69
2023/09/11 05:37:03;;;;;;;16.93;12.10;;;;;;;13.57;89.99;100900.72;5031474;28;20286;-70
2023/09/11 05:39:29;;;;;;;15.33;12.27;;;;;;;13.66;90.40;100908.56;5029248;28;21894;-70
2023/09/11 05:41:56;;;;;;;18.67;11.03;;;;;;;13.70;90.19;100899.59;5031687;28;20216;-70
2023/09/11 05:44:22;;;;;;;18.40;12.60;;;;;;;13.75;90.09;100907.31;5032001;28;20224;-69
2023/09/11 05:46:50;;;;;;;21.27;12.23;;;;;;;13.80;89.91;100906.28;5035601;28;20231;-69
2023/09/11 05:49:16;;;;;;;20.43;12.50;;;;;;;13.88;89.79;100900.81;5033278;28;20675;-70
2023/09/11 05:51:43;;;;;;;16.40;12.17;;;;;;;13.94;89.38;100904.81;5032019;28;20600;-70
2023/09/11 05:54:11;;;;;;;16.37;11.97;;;;;;;14.02;89.90;100903.09;5030157;28;20868;-69
2023/09/11 05:56:37;;;;;;;19.53;13.47;;;;;;;14.12;90.35;100905.25;5031096;28;20233;-70
2023/09/11 05:59:04;;;;;;;15.40;13.00;;;;;;;14.18;90.58;100904.66;5034652;28;20209;-69
2023/09/11 06:01:30;;;;;;;19.47;13.80;;;;;;;14.25;89.96;100910.19;5031951;28;20206;-70
2023/09/11 06:03:58;;;;;;;21.67;14.23;;;;;;;14.35;89.96;100908.91;5030145;28;20216;-69
2023/09/11 06:06:25;;;;;;;22.27;15.10;;;;;;;14.45;89.82;100906.53;5032748;28;20232;-70
2023/09/11 06:08:51;;;;;;;18.50;14.17;;;;;;;14.54;89.92;100906.34;5034655;28;20221;-70
2023/09/11 06:11:17;;;;;;;17.83;14.27;;;;;;;14.63;89.31;100907.72;5034950;28;20935;-70
2023/09/11 06:13:43;;;;;;;24.43;14.83;;;;;;;14.74;89.29;100908.72;5032101;28;20212;-70
2023/09/11 06:16:10;;;;;;;19.70;14.17;;;;;;;14.85;89.32;100912.41;5035957;28;20210;-69
2023/09/11 06:18:36;;;;;;;22.13;13.53;;;;;;;14.94;88.90;100902.34;5029881;28;21548;-70
2023/09/11 06:21:04;;;;;;;25.23;13.60;;;;;;;15.05;88.90;100913.25;5031845;28;20202;-70
2023/09/11 06:23:30;;;;;;;19.27;13.37;;;;;;;15.14;88.84;100911.91;5033588;28;20467;-69
2023/09/11 06:25:57;;;;;;;19.03;13.57;;;;;;;15.25;87.83;100910.25;5034464;28;21143;-69
2023/09/11 06:28:23;;;;;;;21.23;13.07;;;;;;;15.36;87.51;100913.94;5032562;28;20235;-69
2023/09/11 06:30:50;;;;;;;19.77;13.23;;;;;;;15.47;87.42;100908.84;5032241;28;20976;-69
2023/09/11 06:33:16;;;;;;;22.10;12.77;;;;;;;15.60;87.07;100916.34;5033823;28;20218;-69
2023/09/11 06:35:42;;;;;;;22.33;12.80;;;;;;;15.70;86.65;100915.78;5032257;28;20207;-69
2023/09/11 06:38:11;;;;;;;18.33;12.70;;;;;;;15.82;85.87;100912.19;5036805;28;20225;-70
2023/09/11 06:40:38;;;;;;;16.53;12.13;;;;;;;15.97;86.35;100911.31;5033206;28;20442;-70
2023/09/11 06:43:04;;;;;;;14.87;11.53;;;;;;;16.07;85.69;100903.53;5032877;28;20211;-69
2023/09/11 06:45:33;;;;;;;18.93;12.13;;;;;;;16.18;85.23;100909.81;5029707;28;20786;-70
2023/09/11 06:47:59;;;;;;;14.17;11.97;;;;;;;16.29;83.91;100910.00;5033296;28;21625;-70
2023/09/11 06:50:26;;;;;;;14.47;11.37;;;;;;;16.41;84.81;100909.88;5034732;28;20627;-70
2023/09/11 06:52:53;;;;;;;14.43;11.40;;;;;;;16.53;83.90;100918.44;5032612;28;20202;-70
2023/09/11 06:55:20;;;;;;;13.37;11.23;;;;;;;16.65;83.70;100912.91;5032524;28;20204;-70
2023/09/11 06:57:56;;;;;;;14.83;11.20;;;;;;;16.78;83.57;100911.63;5032343;28;20236;-69
2023/09/11 07:00:23;;;;;;;13.03;11.17;;;;;;;16.89;83.23;100925.09;5034380;28;20204;-69
2023/09/11 07:02:50;;;;;;;11.77;10.23;;;;;;;17.02;82.60;100923.78;5031066;28;20971;-69
2023/09/11 07:05:16;;;;;;;13.47;10.53;;;;;;;17.16;82.11;100915.94;5035857;28;20206;-70
2023/09/11 07:07:42;;;;;;;12.70;10.40;;;;;;;17.30;82.09;100921.47;5033623;28;20234;-69
2023/09/11 07:10:11;;;;;;;12.40;9.50;;;;;;;17.41;81.47;100917.06;5031867;28;20235;-69
2023/09/11 07:12:38;;;;;;;13.67;9.70;;;;;;;17.57;80.83;100923.78;5032585;28;20921;-71
2023/09/11 07:15:06;;;;;;;12.80;9.97;;;;;;;17.68;80.51;100916.66;5033572;28;20497;-69
2023/09/11 07:17:32;;;;;;;11.27;9.80;;;;;;;17.81;80.02;100919.84;5033707;28;20239;-69
2023/09/11 07:19:59;;;;;;;10.77;8.50;;;;;;;17.94;79.66;100913.09;5030684;28;20213;-70
2023/09/11 07:22:25;;;;;;;10.33;8.53;;;;;;;18.04;79.20;100913.22;5033088;28;21271;-70
2023/09/11 07:24:51;;;;;;;11.33;8.77;;;;;;;18.18;79.07;100920.63;5032992;28;21027;-70
2023/09/11 07:27:18;;;;;;;9.37;8.17;;;;;;;18.29;78.51;100908.09;5028993;28;20227;-69
2023/09/11 07:29:46;;;;;;;9.70;8.30;;;;;;;18.40;78.34;100915.13;5031669;28;20213;-70
2023/09/11 07:32:12;;;;;;;9.87;8.07;;;;;;;18.55;78.23;100918.69;5031069;28;20205;-69
2023/09/11 07:34:39;;;;;;;8.97;8.07;;;;;;;18.67;77.99;100913.06;5032258;28;20687;-70
2023/09/11 07:37:05;;;;;;;9.90;7.70;;;;;;;18.79;77.38;100920.78;5031339;28;20696;-69
2023/09/11 07:39:31;;;;;;;8.67;7.43;;;;;;;18.93;76.77;100918.97;5025257;28;20214;-70
2023/09/11 07:41:58;;;;;;;10.27;8.30;;;;;;;19.06;76.35;100914.06;5028012;28;22502;-70
2023/09/11 07:44:24;;;;;;;11.50;8.07;;;;;;;19.18;75.09;100919.88;5027762;28;21285;-70
2023/09/11 07:46:52;;;;;;;8.97;7.47;;;;;;;19.29;75.48;100917.25;5022692;28;20233;-70
2023/09/11 07:49:18;;;;;;;14.93;8.33;;;;;;;19.41;75.55;100919.63;5029182;28;20213;-70
2023/09/11 07:51:46;;;;;;;10.00;8.00;;;;;;;19.53;74.88;100911.25;5030078;28;20233;-70
2023/09/11 07:54:12;;;;;;;9.10;7.47;;;;;;;19.63;74.71;100905.97;5030599;28;20212;-69
2023/09/11 07:56:38;;;;;;;8.57;7.33;;;;;;;19.75;74.55;100908.28;5035450;28;20233;-70
2023/09/11 07:59:05;;;;;;;8.23;7.07;;;;;;;19.89;74.38;100913.69;5031262;28;20221;-69
2023/09/11 08:01:31;;;;;;;11.33;7.07;;;;;;;20.01;74.08;100907.97;5030984;28;20205;-69
2023/09/11 08:03:59;;;;;;;8.40;7.50;;;;;;;20.14;72.69;100917.22;5032521;28;20217;-69
2023/09/11 08:06:25;;;;;;;12.27;7.03;;;;;;;20.27;72.04;100910.31;5032982;28;20226;-69
2023/09/11 08:08:52;;;;;;;11.37;7.23;;;;;;;20.41;71.50;100915.72;5033509;28;20775;-69
2023/09/11 08:11:21;;;;;;;8.57;6.80;;;;;;;20.54;71.54;100910.72;5021099;28;20606;-69
2023/09/11 08:13:49;;;;;;;9.47;7.03;;;;;;;20.64;71.31;100905.34;5024073;28;20884;-70
2023/09/11 08:16:17;;;;;;;8.10;6.73;;;;;;;20.76;70.72;100910.34;5033339;28;20236;-69
2023/09/11 08:18:44;;;;;;;8.37;6.67;;;;;;;20.89;68.62;100908.78;5031177;28;21488;-69
2023/09/11 08:21:12;;;;;;;10.73;6.90;;;;;;;21.09;67.94;100907.22;5032805;28;20216;-69
2023/09/11 08:23:41;;;;;;;8.50;6.87;;;;;;;21.20;68.24;100913.31;5035939;28;20303;-70
2023/09/11 08:26:08;;;;;;;9.23;7.00;;;;;;;21.36;68.78;100904.84;5033221;28;20683;-69
2023/09/11 08:28:34;;;;;;;7.40;6.03;;;;;;;21.49;67.82;100909.38;5032401;28;20395;-69
2023/09/11 08:31:01;;;;;;;7.03;6.27;;;;;;;21.64;67.96;100907.41;5033026;28;21063;-70
2023/09/11 08:33:28;;;;;;;7.53;6.50;;;;;;;21.75;67.65;100908.13;5033922;28;20333;-70
2023/09/11 08:35:54;;;;;;;7.50;6.40;;;;;;;21.87;65.50;100910.34;5033024;28;20201;-69
2023/09/11 08:38:22;;;;;;;8.13;7.03;;;;;;;21.98;66.42;100909.16;5034579;28;20202;-70
2023/09/11 08:40:48;;;;;;;8.57;6.90;;;;;;;22.10;63.09;100908.66;5031898;28;20689;-70
2023/09/11 08:43:14;;;;;;;8.77;6.07;;;;;;;22.22;64.46;100910.91;5030751;28;20916;-69
2023/09/11 08:45:41;;;;;;;7.67;6.77;;;;;;;22.34;64.92;100910.44;5032088;28;20210;-69
2023/09/11 08:48:09;;;;;;;8.27;6.50;;;;;;;22.45;63.33;100905.75;5030656;28;20229;-69
2023/09/11 08:50:44;;;;;;;9.10;6.90;;;;;;;22.57;63.61;100901.81;5033823;28;20275;-70
2023/09/11 08:53:13;;;;;;;7.70;6.30;;;;;;;22.66;62.01;100899.44;5028637;28;20205;-69
2023/09/11 08:55:41;;;;;;;8.97;6.63;;;;;;;22.79;60.34;100898.53;5033144;28;20217;-70
2023/09/11 08:58:13;;;;;;;7.07;6.37;;;;;;;22.91;59.65;100908.00;5041931;22;20244;-69
2023/09/11 09:00:39;;;;;;;9.05;6.43;;;;;;;23.01;60.72;100905.22;5026164;28;20663;-70
2023/09/11 09:03:08;;;;;;;8.52;6.30;;;;;;;23.10;60.91;100902.81;5028466;28;20198;-69
2023/09/11 09:05:34;;;;;;;7.60;6.32;;;;;;;23.23;60.42;100908.50;5030098;28;20194;-70
2023/09/11 09:08:03;;;;;;;11.80;7.28;;;;;;;23.36;57.87;100904.09;5028183;28;20804;-69
2023/09/11 09:10:30;;;;;;;7.65;6.07;;;;;;;23.48;59.83;100895.50;5030391;28;20311;-70
2023/09/11 09:12:58;;;;;;;7.97;6.75;;;;;;;23.58;59.61;100900.72;5030119;28;20706;-71
2023/09/11 09:15:25;;;;;;;7.32;6.00;;;;;;;23.69;56.84;100898.66;5032290;28;20198;-72
2023/09/11 09:17:51;;;;;;;8.35;6.22;;;;;;;23.81;55.79;100897.34;5034392;28;20734;-72
2023/09/11 09:20:18;;;;;;;9.25;6.65;;;;;;;23.93;54.66;100891.41;5027679;28;20224;-72
2023/09/11 09:22:55;;;;;;;7.22;6.47;;;;;;;24.05;54.82;100900.88;4999648;28;21508;-71
2023/09/11 09:25:22;;;;;;;11.20;6.32;;;;;;;24.16;56.02;100885.28;5023147;28;20286;-71
2023/09/11 09:27:49;;;;;;;7.72;6.18;;;;;;;24.25;54.43;100888.97;5001672;28;20229;-71
2023/09/11 09:30:24;;;;;;;6.32;5.72;;;;;;;24.34;55.04;100883.84;5025192;28;20211;-71
2023/09/11 09:32:51;;;;;;;9.57;6.22;;;;;;;24.43;55.87;100889.47;5027758;28;20826;-71
2023/09/11 09:35:20;;;;;;;7.90;5.95;;;;;;;24.57;54.46;100885.78;5029499;28;20210;-71
2023/09/11 09:37:51;;;;;;;6.18;5.57;;;;;;;24.70;53.12;100881.34;5029571;28;20230;-72
2023/09/11 09:40:31;;;;;;;9.80;5.97;;;;;;;24.83;49.69;100874.13;5029906;28;20587;-71
2023/09/11 09:42:59;;;;;;;5.60;5.05;;;;;;;24.96;50.28;100875.81;5028139;28;20481;-72
2023/09/11 09:45:33;;;;;;;5.75;5.07;;;;;;;25.02;50.60;100874.13;5011342;28;20202;-72
2023/09/11 09:48:10;;;;;;;7.13;5.18;;;;;;;25.09;49.30;100871.31;5018361;28;20290;-71
2023/09/11 09:50:48;;;;;;;7.05;6.22;;;;;;;25.20;51.35;100871.88;5024038;28;21110;-71
2023/09/11 09:53:21;;;;;;;5.60;5.00;;;;;;;25.31;44.54;100866.25;5019950;28;20938;-71
2023/09/11 09:55:47;;;;;;;6.28;5.50;;;;;;;25.41;46.07;100859.88;5016603;28;20831;-71
2023/09/11 09:58:14;;;;;;;6.10;5.30;;;;;;;25.49;50.02;100859.28;5028960;28;20629;-72
2023/09/11 10:00:42;;;;;;;5.82;5.22;;;;;;;25.57;48.96;100857.97;5030815;28;20687;-71
2023/09/11 10:03:11;;;;;;;7.82;5.57;;;;;;;25.65;47.00;100851.22;5026509;28;20203;-71
2023/09/11 10:05:40;;;;;;;7.25;5.72;;;;;;;25.75;43.92;100846.75;5030970;28;20234;-72
2023/09/11 10:08:07;;;;;;;6.53;5.50;;;;;;;25.82;47.57;100850.06;5031064;28;20544;-72
2023/09/11 10:10:33;;;;;;;6.80;5.68;;;;;;;25.91;49.93;100846.78;5032694;28;20207;-72
2023/09/11 10:13:06;;;;;;;6.25;5.47;;;;;;;25.96;47.32;100838.91;5031289;28;20202;-71
2023/09/11 10:15:34;;;;;;;7.07;5.80;;;;;;;26.02;46.90;100839.19;5030357;28;20530;-72
2023/09/11 10:18:02;;;;;;;6.25;5.65;;;;;;;26.06;47.87;100837.91;5025157;28;21421;-72
2023/09/11 10:20:29;;;;;;;6.18;5.40;;;;;;;26.12;42.50;100830.03;5028952;28;20198;-71
2023/09/11 10:22:57;;;;;;;5.68;5.05;;;;;;;26.19;46.00;100829.84;5026311;28;22186;-71
2023/09/11 10:25:25;;;;;;;8.88;5.40;;;;;;;26.26;47.77;100830.44;5008844;28;20686;-72
2023/09/11 10:27:57;;;;;;;7.55;5.18;;;;;;;26.33;45.30;100835.69;5029010;28;20222;-71
2023/09/11 10:30:27;;;;;;;5.47;4.90;;;;;;;26.41;46.12;100814.63;5029276;28;20218;-71
2023/09/11 10:33:00;;;;;;;9.35;5.20;;;;;;;26.47;45.62;100816.34;5030004;28;20314;-72
2023/09/11 10:35:32;;;;;;;7.68;5.43;;;;;;;26.56;45.18;100810.34;5029598;28;20214;-72
2023/09/11 10:37:59;;;;;;;6.80;5.28;;;;;;;26.62;44.68;100803.25;5032012;28;20235;-71
2023/09/11 10:40:30;;;;;;;7.63;5.00;;;;;;;26.68;42.68;100809.66;5031215;28;20201;-71
2023/09/11 10:42:56;;;;;;;6.88;4.90;;;;;;;26.76;43.57;100805.53;5029015;28;20675;-72
2023/09/11 10:45:26;;;;;;;7.40;4.82;;;;;;;26.81;39.38;100797.66;5030583;28;20216;-72
2023/09/11 10:47:53;;;;;;;6.80;4.70;;;;;;;26.89;40.46;100800.94;5029329;28;20234;-71
2023/09/11 10:50:19;;;;;;;6.28;4.47;;;;;;;26.96;37.00;100798.78;5012531;28;21487;-72
2023/09/11 10:52:47;;;;;;;6.47;4.88;;;;;;;27.03;41.59;100801.28;5028990;28;20218;-72
2023/09/11 10:55:15;;;;;;;5.20;4.60;;;;;;;27.06;43.08;100796.94;5029614;28;20216;-71
2023/09/11 10:57:41;;;;;;;6.38;4.85;;;;;;;27.12;40.49;100782.44;5032843;28;20234;-71
2023/09/11 11:00:10;;;;;;;7.75;4.82;;;;;;;27.19;39.74;100787.66;5028368;28;20210;-71
2023/09/11 11:02:36;;;;;;;9.07;5.03;;;;;;;27.26;43.00;100790.19;5029163;28;20201;-72
2023/09/11 11:05:03;;;;;;;8.90;4.95;;;;;;;27.31;42.68;100780.72;5031568;28;20527;-72
2023/09/11 11:07:30;;;;;;;7.30;5.28;;;;;;;27.38;42.13;100783.22;5030156;28;20273;-71
2023/09/11 11:10:01;;;;;;;6.82;5.10;;;;;;;27.44;42.59;100784.19;5027248;28;20238;-71
2023/09/11 11:12:32;;;;;;;6.43;4.82;;;;;;;27.54;41.23;100788.53;5030777;28;20840;-72
2023/09/11 11:15:18;;;;;;;7.28;4.97;;;;;;;27.61;42.58;100782.91;5027033;28;20209;-72
2023/09/11 11:17:44;;;;;;;5.55;5.00;;;;;;;27.65;40.86;100786.25;5029043;28;20259;-72
2023/09/11 11:20:11;;;;;;;5.38;4.70;;;;;;;27.69;37.86;100776.03;5007400;28;20210;-71